Time;durP1;ratioP1;P1;durP2;ratioP2;P2;SDS_P1;SDS_P2;PMS_P1;PMS_P2;Temp;Humidity;BMP_temperature;BMP_pressure;BME280_temperature;BME280_humidity;BME280_pressure;Samples;Min_cycle;Max_cycle;Signal;HPM_P1;HPM_P2
2021/06/09 00:00:28;;;;;;;5.18;4.78;;;;;;;;;;1474200;40;21611;-91
2021/06/09 00:01:30;;;;;;;5.80;4.47;;;;;;;;;;1475112;40;20506;-91
2021/06/09 00:02:34;;;;;;;4.60;4.20;;;;;;;;;;1474880;40;21631;-90
2021/06/09 00:03:36;;;;;;;5.15;4.53;;;;;;;;;;1471675;40;20985;-92
2021/06/09 00:04:37;;;;;;;4.35;3.95;;;;;;;;;;1469460;40;20503;-91
2021/06/09 00:05:40;;;;;;;5.05;4.60;;;;;;;;;;1471818;40;20430;-91
2021/06/09 00:06:42;;;;;;;5.78;5.28;;;;;;;;;;1474356;40;20430;-91
2021/06/09 00:07:44;;;;;;;4.63;4.28;;;;;;;;;;1476294;40;20430;-93
2021/06/09 00:08:55;;;;;;;5.10;4.63;;;;;;;;;;1474711;40;20418;-91
2021/06/09 00:10:03;;;;;;;4.60;4.22;;;;;;;;;;1477396;40;20404;-93
2021/06/09 00:11:06;;;;;;;5.22;4.82;;;;;;;;;;1477438;40;20416;-92
2021/06/09 00:12:12;;;;;;;5.32;4.80;;;;;;;;;;1477344;40;20413;-93
2021/06/09 00:13:30;;;;;;;5.03;4.53;;;;;;;;;;1474409;40;20400;-93
2021/06/09 00:14:32;;;;;;;5.30;4.88;;;;;;;;;;1476859;40;20407;-91
2021/06/09 00:15:36;;;;;;;7.13;4.25;;;;;;;;;;1475900;40;20399;-89
2021/06/09 00:16:42;;;;;;;5.10;4.70;;;;;;;;;;1476921;39;20399;-91
2021/06/09 00:17:45;;;;;;;5.38;4.95;;;;;;;;;;1476687;40;20445;-91
2021/06/09 00:18:49;;;;;;;5.05;4.63;;;;;;;;;;1476196;40;20423;-91
2021/06/09 00:19:53;;;;;;;5.07;4.68;;;;;;;;;;1472607;40;20436;-89
2021/06/09 00:20:55;;;;;;;5.82;4.80;;;;;;;;;;1473424;40;20414;-89
2021/06/09 00:21:57;;;;;;;4.68;4.28;;;;;;;;;;1467969;40;20420;-87
2021/06/09 00:23:00;;;;;;;6.18;4.63;;;;;;;;;;1472615;40;20502;-92
2021/06/09 00:24:06;;;;;;;4.85;4.50;;;;;;;;;;1477115;40;20410;-90
2021/06/09 00:25:15;;;;;;;5.60;5.10;;;;;;;;;;1476802;40;20426;-91
2021/06/09 00:26:23;;;;;;;5.10;4.63;;;;;;;;;;1473818;40;20438;-91
2021/06/09 00:27:27;;;;;;;5.50;5.00;;;;;;;;;;1475983;40;21717;-91
2021/06/09 00:28:30;;;;;;;5.20;4.47;;;;;;;;;;1476115;40;20409;-91
2021/06/09 00:29:41;;;;;;;5.30;4.80;;;;;;;;;;1473185;40;20440;-92
2021/06/09 00:30:43;;;;;;;5.10;4.60;;;;;;;;;;1474858;40;20474;-91
2021/06/09 00:31:45;;;;;;;7.38;5.03;;;;;;;;;;1477086;40;20427;-90
2021/06/09 00:32:47;;;;;;;4.72;4.32;;;;;;;;;;1475337;40;20459;-88
2021/06/09 00:33:49;;;;;;;5.55;5.03;;;;;;;;;;1474796;40;20442;-91
2021/06/09 00:34:51;;;;;;;7.90;5.38;;;;;;;;;;1470731;40;20423;-90
2021/06/09 00:35:57;;;;;;;6.03;5.57;;;;;;;;;;1470790;40;20404;-90
2021/06/09 00:36:59;;;;;;;5.28;4.88;;;;;;;;;;1474909;40;20409;-89
2021/06/09 00:38:02;;;;;;;5.50;5.00;;;;;;;;;;1471066;40;20740;-91
2021/06/09 00:39:06;;;;;;;5.47;4.97;;;;;;;;;;1473970;40;20696;-90
2021/06/09 00:40:10;;;;;;;5.18;4.78;;;;;;;;;;1472862;40;21563;-91
2021/06/09 00:41:13;;;;;;;6.32;5.72;;;;;;;;;;1473850;40;20437;-90
2021/06/09 00:42:21;;;;;;;5.72;5.22;;;;;;;;;;1470591;40;20420;-90
2021/06/09 00:43:27;;;;;;;5.70;5.30;;;;;;;;;;1470141;40;20965;-89
2021/06/09 00:44:30;;;;;;;5.90;5.30;;;;;;;;;;1475189;40;20411;-90
2021/06/09 00:45:43;;;;;;;5.60;5.10;;;;;;;;;;1471692;40;20644;-89
2021/06/09 00:46:49;;;;;;;6.25;5.65;;;;;;;;;;1472828;40;20407;-87
2021/06/09 00:47:51;;;;;;;6.93;6.33;;;;;;;;;;1474283;40;20430;-89
2021/06/09 00:48:53;;;;;;;6.73;6.07;;;;;;;;;;1471066;40;20529;-89
2021/06/09 00:49:59;;;;;;;6.88;6.38;;;;;;;;;;1470745;40;20424;-91
2021/06/09 00:51:04;;;;;;;6.97;6.38;;;;;;;;;;1469420;40;21170;-87
2021/06/09 00:52:07;;;;;;;7.63;7.00;;;;;;;;;;1474861;40;20390;-89
2021/06/09 00:53:28;;;;;;;8.27;7.57;;;;;;;;;;1465176;40;21088;-90
2021/06/09 00:54:30;;;;;;;8.68;7.88;;;;;;;;;;1467429;40;20420;-89
2021/06/09 00:55:31;;;;;;;9.55;8.63;;;;;;;;;;1473003;40;20440;-88
2021/06/09 00:56:37;;;;;;;10.35;8.35;;;;;;;;;;1472925;40;20414;-90
2021/06/09 00:57:40;;;;;;;10.20;9.30;;;;;;;;;;1468385;40;21869;-89
2021/06/09 00:58:44;;;;;;;10.57;9.63;;;;;;;;;;1467212;40;20423;-90
2021/06/09 00:59:46;;;;;;;9.75;8.85;;;;;;;;;;1465737;40;20464;-90
2021/06/09 01:00:49;;;;;;;11.35;9.75;;;;;;;;;;1465611;40;20409;-89
2021/06/09 01:01:51;;;;;;;10.85;9.85;;;;;;;;;;1460458;40;21057;-90
2021/06/09 01:02:52;;;;;;;11.32;10.32;;;;;;;;;;1466719;40;20552;-88
2021/06/09 01:03:55;;;;;;;12.13;10.93;;;;;;;;;;1469558;40;20427;-87
2021/06/09 01:04:58;;;;;;;11.75;10.70;;;;;;;;;;1465888;40;20455;-89
2021/06/09 01:06:05;;;;;;;14.00;12.73;;;;;;;;;;1473407;40;20435;-89
2021/06/09 01:07:09;;;;;;;16.90;14.93;;;;;;;;;;1476600;40;20930;-90
2021/06/09 01:08:12;;;;;;;16.42;14.98;;;;;;;;;;1472038;40;20466;-89
2021/06/09 01:09:15;;;;;;;14.10;12.80;;;;;;;;;;1472584;40;20405;-90
2021/06/09 01:10:16;;;;;;;13.98;12.77;;;;;;;;;;1472400;40;20445;-89
2021/06/09 01:11:21;;;;;;;14.05;12.85;;;;;;;;;;1469762;40;20507;-89
2021/06/09 01:12:24;;;;;;;12.48;11.18;;;;;;;;;;1477417;40;20435;-89
2021/06/09 01:13:29;;;;;;;13.00;11.68;;;;;;;;;;1482967;40;20412;-88
2021/06/09 01:14:30;;;;;;;12.75;11.45;;;;;;;;;;1476319;40;20416;-88
2021/06/09 01:15:32;;;;;;;12.43;11.20;;;;;;;;;;1474401;40;20427;-87
2021/06/09 01:16:34;;;;;;;12.02;10.93;;;;;;;;;;1472473;40;20391;-87
2021/06/09 01:17:36;;;;;;;12.30;11.20;;;;;;;;;;1472226;40;20412;-89
2021/06/09 01:18:38;;;;;;;11.05;10.05;;;;;;;;;;1470031;40;20413;-85
2021/06/09 01:19:40;;;;;;;12.27;11.05;;;;;;;;;;1466325;40;20550;-87
2021/06/09 01:20:44;;;;;;;12.55;11.35;;;;;;;;;;1464406;40;20423;-88
2021/06/09 01:21:48;;;;;;;11.63;10.48;;;;;;;;;;1468265;40;20413;-87
2021/06/09 01:22:50;;;;;;;11.15;9.95;;;;;;;;;;1473030;40;20406;-88
2021/06/09 01:23:52;;;;;;;10.52;9.63;;;;;;;;;;1473000;40;20486;-90
2021/06/09 01:24:54;;;;;;;13.48;9.10;;;;;;;;;;1472042;40;20503;-90
2021/06/09 01:25:57;;;;;;;10.48;9.48;;;;;;;;;;1467448;40;20457;-90
2021/06/09 01:27:00;;;;;;;10.50;9.03;;;;;;;;;;1472789;40;20426;-89
2021/06/09 01:28:05;;;;;;;13.02;9.40;;;;;;;;;;1469872;40;20416;-89
2021/06/09 01:29:09;;;;;;;10.23;8.80;;;;;;;;;;1467192;40;20425;-90
2021/06/09 01:30:12;;;;;;;9.98;8.65;;;;;;;;;;1469383;40;20434;-90
2021/06/09 01:31:14;;;;;;;10.23;9.20;;;;;;;;;;1467775;40;20426;-90
2021/06/09 01:32:17;;;;;;;9.73;8.77;;;;;;;;;;1468723;40;20475;-91
2021/06/09 01:33:21;;;;;;;11.18;9.70;;;;;;;;;;1464118;40;20426;-90
2021/06/09 01:34:23;;;;;;;10.23;9.13;;;;;;;;;;1460640;40;20522;-89
2021/06/09 01:35:27;;;;;;;10.07;9.02;;;;;;;;;;1460968;40;20788;-90
2021/06/09 01:36:29;;;;;;;11.27;9.07;;;;;;;;;;1464137;40;20447;-89
2021/06/09 01:37:32;;;;;;;9.93;8.95;;;;;;;;;;1468585;40;20660;-90
2021/06/09 01:38:34;;;;;;;9.65;8.65;;;;;;;;;;1468681;40;20400;-90
2021/06/09 01:39:38;;;;;;;9.20;8.38;;;;;;;;;;1463293;40;20409;-92
2021/06/09 01:40:46;;;;;;;11.02;9.43;;;;;;;;;;1473851;40;20416;-89
2021/06/09 01:41:51;;;;;;;10.93;9.90;;;;;;;;;;1476710;40;20559;-89
2021/06/09 01:42:53;;;;;;;9.88;8.93;;;;;;;;;;1476892;40;20394;-91
2021/06/09 01:43:56;;;;;;;10.63;9.63;;;;;;;;;;1477517;40;20399;-89
2021/06/09 01:45:04;;;;;;;10.23;9.27;;;;;;;;;;1478890;40;20403;-88
2021/06/09 01:46:05;;;;;;;10.48;9.50;;;;;;;;;;1476707;40;20468;-87
2021/06/09 01:47:12;;;;;;;11.00;9.85;;;;;;;;;;1476332;40;20441;-88
2021/06/09 01:48:16;;;;;;;12.57;11.40;;;;;;;;;;1476576;40;20400;-88
2021/06/09 01:49:19;;;;;;;14.23;11.88;;;;;;;;;;1477882;40;20403;-87
2021/06/09 01:50:23;;;;;;;13.60;12.20;;;;;;;;;;1477581;40;20417;-90
2021/06/09 01:51:28;;;;;;;12.77;11.50;;;;;;;;;;1476071;40;20444;-89
2021/06/09 01:52:30;;;;;;;14.30;12.80;;;;;;;;;;1476201;40;20410;-89
2021/06/09 01:53:31;;;;;;;14.75;13.27;;;;;;;;;;1473156;40;20400;-89
2021/06/09 01:54:33;;;;;;;15.32;13.88;;;;;;;;;;1474140;40;20754;-90
2021/06/09 01:55:36;;;;;;;15.53;14.13;;;;;;;;;;1473042;40;20555;-88
2021/06/09 01:56:39;;;;;;;19.15;14.80;;;;;;;;;;1474144;40;20424;-88
2021/06/09 01:57:41;;;;;;;16.65;14.90;;;;;;;;;;1478742;40;20756;-88
2021/06/09 01:58:43;;;;;;;16.00;14.40;;;;;;;;;;1471396;40;20447;-88
2021/06/09 01:59:45;;;;;;;15.80;14.10;;;;;;;;;;1471397;40;20405;-89
2021/06/09 02:00:48;;;;;;;15.85;14.23;;;;;;;;;;1477880;40;20889;-87
2021/06/09 02:01:51;;;;;;;16.50;14.90;;;;;;;;;;1475711;40;20471;-89
2021/06/09 02:02:57;;;;;;;16.42;14.73;;;;;;;;;;1479283;40;20418;-87
2021/06/09 02:03:59;;;;;;;14.70;13.40;;;;;;;;;;1475219;40;20573;-87
2021/06/09 02:05:01;;;;;;;17.00;15.32;;;;;;;;;;1475815;40;20396;-87
2021/06/09 02:06:04;;;;;;;18.42;16.30;;;;;;;;;;1473785;40;20429;-87
2021/06/09 02:07:06;;;;;;;21.30;19.08;;;;;;;;;;1473298;40;20527;-89
2021/06/09 02:08:10;;;;;;;19.52;17.63;;;;;;;;;;1475719;40;20396;-88
2021/06/09 02:09:13;;;;;;;21.20;18.90;;;;;;;;;;1479315;40;20425;-87
2021/06/09 02:10:20;;;;;;;22.98;20.55;;;;;;;;;;1479663;40;21163;-88
2021/06/09 02:11:22;;;;;;;24.40;21.42;;;;;;;;;;1480659;40;20383;-87
2021/06/09 02:12:27;;;;;;;24.65;22.10;;;;;;;;;;1479706;40;20422;-88
2021/06/09 02:13:31;;;;;;;23.65;21.33;;;;;;;;;;1481488;40;20436;-88
2021/06/09 02:14:36;;;;;;;27.10;24.23;;;;;;;;;;1481163;40;20930;-90
2021/06/09 02:15:38;;;;;;;26.65;23.88;;;;;;;;;;1477384;40;20427;-91
2021/06/09 02:16:44;;;;;;;26.08;23.38;;;;;;;;;;1481443;40;20422;-89
2021/06/09 02:17:56;;;;;;;26.67;23.80;;;;;;;;;;1480947;40;20407;-88
2021/06/09 02:18:58;;;;;;;28.35;25.33;;;;;;;;;;1478114;40;20419;-88
2021/06/09 02:20:03;;;;;;;28.20;25.05;;;;;;;;;;1474207;40;20515;-88
2021/06/09 02:21:05;;;;;;;29.65;26.63;;;;;;;;;;1479758;40;20393;-88
2021/06/09 02:22:07;;;;;;;28.17;25.27;;;;;;;;;;1481498;40;20698;-87
2021/06/09 02:23:17;;;;;;;28.40;25.45;;;;;;;;;;1478484;40;20418;-87
2021/06/09 02:24:20;;;;;;;29.23;25.52;;;;;;;;;;1482518;40;20394;-88
2021/06/09 02:25:23;;;;;;;28.63;25.52;;;;;;;;;;1482032;40;20394;-89
2021/06/09 02:26:26;;;;;;;27.85;24.98;;;;;;;;;;1482406;40;20413;-87
2021/06/09 02:27:28;;;;;;;28.63;25.60;;;;;;;;;;1483019;40;20405;-87
2021/06/09 02:28:36;;;;;;;27.70;24.77;;;;;;;;;;1479084;40;20401;-89
2021/06/09 02:29:37;;;;;;;28.58;25.27;;;;;;;;;;1481840;40;20775;-85
2021/06/09 02:30:43;;;;;;;27.00;24.15;;;;;;;;;;1477492;40;20462;-88
2021/06/09 02:31:50;;;;;;;28.67;25.77;;;;;;;;;;1478125;40;20408;-89
2021/06/09 02:32:52;;;;;;;28.77;25.80;;;;;;;;;;1480617;40;20418;-87
2021/06/09 02:33:55;;;;;;;27.35;24.45;;;;;;;;;;1478501;40;20565;-87
2021/06/09 02:34:57;;;;;;;27.92;24.95;;;;;;;;;;1470631;40;20831;-88
2021/06/09 02:35:59;;;;;;;27.90;25.05;;;;;;;;;;1473563;40;20430;-87
2021/06/09 02:37:01;;;;;;;27.23;24.45;;;;;;;;;;1469768;40;20421;-87
2021/06/09 02:38:05;;;;;;;28.38;25.48;;;;;;;;;;1462610;40;20774;-87
2021/06/09 02:39:06;;;;;;;27.10;24.33;;;;;;;;;;1462851;40;20419;-88
2021/06/09 02:40:09;;;;;;;26.75;23.85;;;;;;;;;;1473996;40;20407;-88
2021/06/09 02:41:13;;;;;;;28.02;25.23;;;;;;;;;;1479507;40;20422;-88
2021/06/09 02:42:18;;;;;;;29.40;24.75;;;;;;;;;;1470410;40;20388;-87
2021/06/09 02:43:21;;;;;;;26.95;24.13;;;;;;;;;;1472467;40;20421;-87
2021/06/09 02:44:23;;;;;;;28.73;25.67;;;;;;;;;;1475558;40;20403;-88
2021/06/09 02:45:25;;;;;;;28.27;25.35;;;;;;;;;;1471782;40;20492;-86
2021/06/09 02:46:33;;;;;;;27.85;24.95;;;;;;;;;;1468932;40;20433;-89
2021/06/09 02:47:37;;;;;;;30.70;27.50;;;;;;;;;;1470459;40;20896;-89
2021/06/09 02:48:46;;;;;;;30.98;27.05;;;;;;;;;;1474240;40;20759;-89
2021/06/09 02:49:49;;;;;;;33.30;28.25;;;;;;;;;;1477513;40;20402;-88
2021/06/09 02:50:51;;;;;;;31.17;27.85;;;;;;;;;;1472473;40;20407;-87
2021/06/09 02:52:03;;;;;;;33.08;29.55;;;;;;;;;;1474158;40;20416;-90
2021/06/09 02:53:11;;;;;;;34.58;30.98;;;;;;;;;;1482488;40;20442;-91
2021/06/09 02:54:18;;;;;;;33.50;30.00;;;;;;;;;;1479186;40;20401;-89
2021/06/09 02:55:57;;;;;;;32.95;29.45;;;;;;;;;;1479487;40;20399;-89
2021/06/09 02:57:23;;;;;;;37.57;31.57;;;;;;;;;;1479694;40;20463;-91
2021/06/09 02:58:28;;;;;;;34.30;30.48;;;;;;;;;;1479624;40;20507;-88
2021/06/09 03:00:00;;;;;;;34.30;30.63;;;;;;;;;;1482464;40;20391;-88
2021/06/09 03:01:24;;;;;;;37.25;33.05;;;;;;;;;;1480236;40;20422;-90
2021/06/09 03:02:38;;;;;;;35.30;31.08;;;;;;;;;;1480149;40;20434;-88
2021/06/09 03:03:57;;;;;;;35.78;31.92;;;;;;;;;;1481303;40;20449;-89
2021/06/09 03:05:48;;;;;;;34.42;30.83;;;;;;;;;;1480597;40;20647;-88
2021/06/09 03:07:00;;;;;;;36.17;32.28;;;;;;;;;;1470269;40;20508;-91
2021/06/09 03:08:42;;;;;;;40.88;31.52;;;;;;;;;;1478915;40;20398;-91
2021/06/09 03:09:47;;;;;;;38.28;32.58;;;;;;;;;;1476102;40;20449;-90
2021/06/09 03:10:58;;;;;;;40.17;35.83;;;;;;;;;;1473035;40;20409;-90
2021/06/09 03:12:36;;;;;;;44.97;39.53;;;;;;;;;;1473814;40;20411;-89
2021/06/09 03:15:14;;;;;;;45.45;40.28;;;;;;;;;;1479280;40;20406;-91
2021/06/09 03:16:25;;;;;;;44.92;40.03;;;;;;;;;;1477571;40;20398;-92
2021/06/09 03:17:33;;;;;;;45.60;40.00;;;;;;;;;;1474970;40;20424;-91
2021/06/09 03:18:52;;;;;;;46.15;40.60;;;;;;;;;;1473487;40;20405;-90
2021/06/09 03:20:07;;;;;;;44.95;40.05;;;;;;;;;;1475881;40;20395;-92
2021/06/09 03:21:21;;;;;;;48.33;43.03;;;;;;;;;;1476561;40;20418;-91
2021/06/09 03:22:37;;;;;;;44.28;39.28;;;;;;;;;;1473719;40;20404;-91
2021/06/09 03:23:46;;;;;;;46.22;41.00;;;;;;;;;;1472860;40;20409;-91
2021/06/09 03:24:54;;;;;;;52.60;45.47;;;;;;;;;;1477000;40;20407;-91
2021/06/09 03:26:19;;;;;;;60.83;50.97;;;;;;;;;;1480645;40;20421;-91
2021/06/09 03:27:37;;;;;;;65.20;53.83;;;;;;;;;;1482853;40;20418;-91
2021/06/09 03:29:03;;;;;;;67.05;54.90;;;;;;;;;;1481930;40;20457;-90
2021/06/09 03:30:09;;;;;;;68.95;55.13;;;;;;;;;;1478880;40;20419;-89
2021/06/09 03:31:20;;;;;;;73.75;57.50;;;;;;;;;;1478059;40;20497;-90
2021/06/09 03:32:35;;;;;;;70.00;56.88;;;;;;;;;;1479121;40;20425;-88
2021/06/09 03:33:43;;;;;;;74.35;58.88;;;;;;;;;;1480636;40;20539;-90
2021/06/09 03:34:55;;;;;;;71.72;59.15;;;;;;;;;;1478294;40;20463;-91
2021/06/09 03:36:21;;;;;;;82.78;64.95;;;;;;;;;;1480584;40;20393;-91
2021/06/09 03:37:24;;;;;;;84.10;65.50;;;;;;;;;;1476559;40;20435;-90
2021/06/09 03:38:30;;;;;;;91.25;67.45;;;;;;;;;;1480391;40;20410;-90
2021/06/09 03:39:35;;;;;;;90.72;67.65;;;;;;;;;;1482815;40;20398;-91
2021/06/09 03:40:37;;;;;;;87.17;65.87;;;;;;;;;;1482352;40;20463;-91
2021/06/09 03:41:46;;;;;;;89.07;68.38;;;;;;;;;;1482938;40;20398;-90
2021/06/09 03:42:54;;;;;;;98.83;70.73;;;;;;;;;;1485252;40;20514;-90
2021/06/09 03:43:58;;;;;;;94.25;70.97;;;;;;;;;;1481512;40;20512;-89
2021/06/09 03:45:01;;;;;;;96.57;71.78;;;;;;;;;;1484027;39;20410;-92
2021/06/09 03:46:07;;;;;;;92.85;70.93;;;;;;;;;;1479315;40;20396;-90
2021/06/09 03:47:12;;;;;;;95.63;70.05;;;;;;;;;;1483103;40;20414;-91
2021/06/09 03:48:16;;;;;;;101.13;71.72;;;;;;;;;;1477339;40;20396;-90
2021/06/09 03:49:20;;;;;;;99.75;73.28;;;;;;;;;;1476059;40;20415;-90
2021/06/09 03:50:24;;;;;;;104.80;75.40;;;;;;;;;;1475043;40;20412;-90
2021/06/09 03:51:28;;;;;;;100.95;75.88;;;;;;;;;;1481969;40;20530;-90
2021/06/09 03:52:30;;;;;;;106.93;76.05;;;;;;;;;;1479085;40;20425;-91
2021/06/09 03:53:33;;;;;;;105.07;76.32;;;;;;;;;;1475488;40;20408;-90
2021/06/09 03:54:39;;;;;;;102.38;74.15;;;;;;;;;;1476056;40;20427;-89
2021/06/09 03:55:44;;;;;;;100.32;73.85;;;;;;;;;;1478758;40;20421;-89
2021/06/09 03:56:48;;;;;;;109.38;77.07;;;;;;;;;;1478634;40;20421;-90
2021/06/09 03:57:52;;;;;;;107.57;76.80;;;;;;;;;;1479266;40;20469;-91
2021/06/09 03:58:56;;;;;;;103.55;74.93;;;;;;;;;;1478550;40;20767;-91
2021/06/09 04:00:00;;;;;;;102.60;75.28;;;;;;;;;;1473445;40;20424;-90
2021/06/09 04:01:04;;;;;;;102.60;74.63;;;;;;;;;;1470461;40;20461;-89
2021/06/09 04:02:08;;;;;;;95.20;72.45;;;;;;;;;;1472473;40;20468;-89
2021/06/09 04:03:10;;;;;;;96.22;72.47;;;;;;;;;;1474170;40;20412;-90
2021/06/09 04:04:20;;;;;;;101.45;76.25;;;;;;;;;;1474998;40;20407;-88
2021/06/09 04:05:24;;;;;;;104.50;74.68;;;;;;;;;;1473677;40;20443;-90
2021/06/09 04:06:27;;;;;;;95.35;74.82;;;;;;;;;;1474698;40;21025;-90
2021/06/09 04:07:30;;;;;;;100.95;75.70;;;;;;;;;;1470834;40;20705;-90
2021/06/09 04:08:34;;;;;;;101.63;75.07;;;;;;;;;;1471065;40;20402;-91
2021/06/09 04:09:38;;;;;;;101.35;75.20;;;;;;;;;;1469896;40;20432;-89
2021/06/09 04:10:44;;;;;;;100.97;75.05;;;;;;;;;;1474812;40;20682;-91
2021/06/09 04:11:51;;;;;;;102.90;73.95;;;;;;;;;;1480230;40;20426;-91
2021/06/09 04:12:56;;;;;;;98.63;76.18;;;;;;;;;;1481157;40;20402;-91
2021/06/09 04:14:00;;;;;;;103.88;75.80;;;;;;;;;;1477161;40;20408;-88
2021/06/09 04:15:04;;;;;;;93.55;71.40;;;;;;;;;;1476085;40;20801;-90
2021/06/09 04:16:08;;;;;;;102.50;73.88;;;;;;;;;;1476346;40;20407;-89
2021/06/09 04:17:13;;;;;;;96.57;74.40;;;;;;;;;;1477119;40;20420;-90
2021/06/09 04:18:17;;;;;;;94.93;71.90;;;;;;;;;;1478326;40;20386;-89
2021/06/09 04:19:26;;;;;;;92.47;71.70;;;;;;;;;;1478143;40;20400;-90
2021/06/09 04:20:30;;;;;;;89.38;71.07;;;;;;;;;;1474916;40;20404;-89
2021/06/09 04:21:35;;;;;;;93.55;70.78;;;;;;;;;;1470032;40;20413;-90
2021/06/09 04:22:44;;;;;;;91.07;71.13;;;;;;;;;;1469937;40;20529;-88
2021/06/09 04:23:46;;;;;;;90.00;69.93;;;;;;;;;;1472911;40;20527;-88
2021/06/09 04:24:49;;;;;;;95.05;71.05;;;;;;;;;;1478421;40;20417;-89
2021/06/09 04:25:52;;;;;;;91.43;71.15;;;;;;;;;;1474948;40;20574;-89
2021/06/09 04:26:54;;;;;;;90.65;70.65;;;;;;;;;;1473836;40;20412;-89
2021/06/09 04:28:05;;;;;;;89.55;70.22;;;;;;;;;;1474471;40;21058;-89
2021/06/09 04:29:08;;;;;;;86.65;67.97;;;;;;;;;;1473491;40;20421;-89
2021/06/09 04:30:17;;;;;;;86.93;69.20;;;;;;;;;;1475741;40;20404;-90
2021/06/09 04:31:19;;;;;;;89.95;69.40;;;;;;;;;;1479178;40;20409;-89
2021/06/09 04:32:24;;;;;;;86.82;67.82;;;;;;;;;;1485110;40;20408;-92
2021/06/09 04:33:31;;;;;;;87.88;68.72;;;;;;;;;;1484199;40;20418;-91
2021/06/09 04:34:49;;;;;;;82.53;67.85;;;;;;;;;;1481278;40;20397;-89
2021/06/09 04:35:51;;;;;;;85.13;65.00;;;;;;;;;;1476657;40;20539;-88
2021/06/09 04:36:52;;;;;;;84.38;66.35;;;;;;;;;;1471211;40;20444;-88
2021/06/09 04:37:55;;;;;;;83.50;66.40;;;;;;;;;;1467920;40;20407;-89
2021/06/09 04:38:57;;;;;;;81.05;63.67;;;;;;;;;;1470902;40;20418;-90
2021/06/09 04:39:58;;;;;;;82.60;64.63;;;;;;;;;;1477275;40;20429;-90
2021/06/09 04:41:00;;;;;;;83.55;66.22;;;;;;;;;;1475969;40;20399;-90
2021/06/09 04:42:04;;;;;;;78.32;63.30;;;;;;;;;;1479386;40;20675;-88
2021/06/09 04:43:08;;;;;;;77.05;62.65;;;;;;;;;;1477898;40;20410;-90
2021/06/09 04:44:10;;;;;;;79.73;63.70;;;;;;;;;;1475451;40;20565;-90
2021/06/09 04:45:12;;;;;;;75.25;62.35;;;;;;;;;;1475030;40;20408;-90
2021/06/09 04:46:20;;;;;;;75.32;62.75;;;;;;;;;;1478471;40;20402;-92
2021/06/09 04:47:29;;;;;;;76.55;61.38;;;;;;;;;;1479463;40;20410;-90
2021/06/09 04:48:36;;;;;;;73.50;61.40;;;;;;;;;;1479874;40;20410;-90
2021/06/09 04:49:41;;;;;;;75.05;61.42;;;;;;;;;;1478693;40;20400;-90
2021/06/09 04:50:47;;;;;;;75.17;61.40;;;;;;;;;;1482334;40;20568;-91
2021/06/09 04:51:48;;;;;;;75.13;60.47;;;;;;;;;;1479287;40;20797;-89
2021/06/09 04:52:53;;;;;;;69.65;57.90;;;;;;;;;;1475405;40;20954;-90
2021/06/09 04:54:06;;;;;;;69.50;57.72;;;;;;;;;;1474644;40;20412;-89
2021/06/09 04:55:14;;;;;;;69.07;56.63;;;;;;;;;;1478182;40;20409;-90
2021/06/09 04:56:17;;;;;;;67.30;55.83;;;;;;;;;;1478437;40;20495;-88
2021/06/09 04:57:19;;;;;;;69.93;58.05;;;;;;;;;;1474319;40;20419;-88
2021/06/09 04:58:24;;;;;;;68.57;56.13;;;;;;;;;;1469744;40;20409;-89
2021/06/09 04:59:26;;;;;;;64.20;54.58;;;;;;;;;;1470059;40;20436;-91
2021/06/09 05:00:28;;;;;;;65.90;54.85;;;;;;;;;;1478945;40;20409;-89
2021/06/09 05:01:31;;;;;;;68.30;56.08;;;;;;;;;;1474145;40;20908;-87
2021/06/09 05:02:34;;;;;;;64.72;54.17;;;;;;;;;;1470181;40;20425;-88
2021/06/09 05:03:37;;;;;;;66.28;54.75;;;;;;;;;;1472249;40;20427;-91
2021/06/09 05:04:39;;;;;;;64.53;55.03;;;;;;;;;;1469806;40;20414;-91
2021/06/09 05:05:50;;;;;;;65.97;54.25;;;;;;;;;;1471158;40;20437;-91
2021/06/09 05:06:54;;;;;;;65.43;53.35;;;;;;;;;;1474048;40;21134;-90
2021/06/09 05:07:58;;;;;;;64.35;52.97;;;;;;;;;;1470201;40;20413;-90
2021/06/09 05:09:02;;;;;;;53.38;45.22;;;;;;;;;;1470481;40;20427;-89
2021/06/09 05:10:08;;;;;;;60.67;51.42;;;;;;;;;;1475556;40;20504;-90
2021/06/09 05:11:19;;;;;;;59.57;50.20;;;;;;;;;;1478682;40;20776;-90
2021/06/09 05:12:25;;;;;;;59.35;49.90;;;;;;;;;;1479362;40;20407;-90
2021/06/09 05:13:32;;;;;;;59.80;48.95;;;;;;;;;;1473090;40;20667;-91
2021/06/09 05:14:55;;;;;;;57.42;47.95;;;;;;;;;;1476797;40;20390;-91
2021/06/09 05:16:12;;;;;;;58.95;49.13;;;;;;;;;;1476151;40;20403;-89
2021/06/09 05:17:29;;;;;;;59.45;47.53;;;;;;;;;;1473830;40;20412;-91
2021/06/09 05:18:42;;;;;;;57.85;46.50;;;;;;;;;;1478348;40;20855;-91
2021/06/09 05:19:49;;;;;;;53.93;44.97;;;;;;;;;;1477812;40;21166;-90
2021/06/09 05:20:54;;;;;;;57.10;45.80;;;;;;;;;;1479678;40;20493;-91
2021/06/09 05:22:27;;;;;;;57.67;48.17;;;;;;;;;;1474461;40;20452;-90
2021/06/09 05:23:51;;;;;;;57.72;46.45;;;;;;;;;;1458991;40;20416;-91
2021/06/09 05:24:55;;;;;;;53.30;45.33;;;;;;;;;;1476393;40;20492;-91
2021/06/09 05:25:59;;;;;;;58.00;47.72;;;;;;;;;;1478871;40;20399;-90
2021/06/09 05:27:12;;;;;;;57.88;47.20;;;;;;;;;;1480321;40;20418;-91
2021/06/09 05:28:37;;;;;;;54.60;46.28;;;;;;;;;;1478748;40;20679;-91
2021/06/09 05:29:48;;;;;;;52.20;44.53;;;;;;;;;;1476762;40;20690;-91
2021/06/09 05:30:55;;;;;;;57.40;46.72;;;;;;;;;;1479305;40;20425;-92
2021/06/09 05:32:05;;;;;;;49.30;43.35;;;;;;;;;;1476378;40;20419;-93
2021/06/09 05:33:17;;;;;;;50.55;44.05;;;;;;;;;;1479391;40;20392;-91
2021/06/09 05:34:22;;;;;;;51.92;44.70;;;;;;;;;;1477302;40;20445;-91
2021/06/09 05:35:24;;;;;;;53.45;42.63;;;;;;;;;;1479663;40;20441;-91
2021/06/09 05:36:30;;;;;;;48.65;42.92;;;;;;;;;;1478909;40;20635;-90
2021/06/09 05:37:35;;;;;;;50.00;41.90;;;;;;;;;;1478266;40;20458;-91
2021/06/09 05:38:39;;;;;;;48.95;40.97;;;;;;;;;;1479978;40;20415;-91
2021/06/09 05:39:42;;;;;;;47.35;39.80;;;;;;;;;;1473032;40;20413;-91
2021/06/09 05:40:45;;;;;;;45.97;40.15;;;;;;;;;;1473642;40;20412;-89
2021/06/09 05:41:54;;;;;;;47.03;40.28;;;;;;;;;;1479611;40;21116;-90
2021/06/09 05:42:56;;;;;;;47.28;40.20;;;;;;;;;;1479634;40;20407;-90
2021/06/09 05:43:58;;;;;;;44.08;38.40;;;;;;;;;;1485035;40;20417;-89
2021/06/09 05:45:01;;;;;;;49.50;38.67;;;;;;;;;;1480891;40;20408;-89
2021/06/09 05:46:08;;;;;;;46.78;38.17;;;;;;;;;;1480612;40;20414;-92
2021/06/09 05:47:11;;;;;;;44.88;38.47;;;;;;;;;;1480997;40;20399;-91
2021/06/09 05:48:16;;;;;;;43.13;38.03;;;;;;;;;;1476570;40;20388;-90
2021/06/09 05:49:22;;;;;;;44.25;38.15;;;;;;;;;;1479420;40;20823;-90
2021/06/09 05:50:33;;;;;;;44.53;38.70;;;;;;;;;;1479955;40;20402;-90
2021/06/09 05:51:42;;;;;;;49.35;38.70;;;;;;;;;;1480362;40;20880;-91
2021/06/09 05:53:03;;;;;;;43.00;37.10;;;;;;;;;;1475849;40;20401;-91
2021/06/09 05:54:14;;;;;;;42.60;35.70;;;;;;;;;;1475577;40;20478;-90
2021/06/09 05:55:20;;;;;;;43.67;34.90;;;;;;;;;;1476569;40;20756;-92
2021/06/09 05:56:23;;;;;;;43.87;36.43;;;;;;;;;;1474350;40;20441;-91
2021/06/09 05:57:31;;;;;;;42.10;35.10;;;;;;;;;;1475923;40;20396;-90
2021/06/09 05:58:33;;;;;;;40.13;35.50;;;;;;;;;;1474599;40;20403;-89
2021/06/09 05:59:42;;;;;;;41.08;35.15;;;;;;;;;;1475411;40;20424;-89
2021/06/09 06:00:49;;;;;;;41.72;35.22;;;;;;;;;;1475237;40;20403;-90
2021/06/09 06:01:53;;;;;;;42.60;35.33;;;;;;;;;;1474195;40;20396;-90
2021/06/09 06:03:05;;;;;;;38.80;33.40;;;;;;;;;;1471945;40;20477;-88
2021/06/09 06:04:10;;;;;;;37.17;32.58;;;;;;;;;;1468892;40;20399;-89
2021/06/09 06:05:12;;;;;;;40.90;34.00;;;;;;;;;;1478297;40;20405;-90
2021/06/09 06:06:15;;;;;;;38.95;33.67;;;;;;;;;;1477696;40;20405;-90
2021/06/09 06:07:18;;;;;;;38.65;32.97;;;;;;;;;;1474506;40;20663;-88
2021/06/09 06:08:22;;;;;;;38.60;32.80;;;;;;;;;;1475227;40;20408;-91
2021/06/09 06:09:24;;;;;;;37.17;32.70;;;;;;;;;;1477022;40;20396;-89
2021/06/09 06:10:26;;;;;;;39.97;32.25;;;;;;;;;;1481390;40;20408;-90
2021/06/09 06:11:29;;;;;;;36.72;32.10;;;;;;;;;;1480285;40;20420;-90
2021/06/09 06:12:32;;;;;;;38.53;32.50;;;;;;;;;;1473356;40;20398;-91
2021/06/09 06:13:35;;;;;;;38.55;32.88;;;;;;;;;;1479198;40;20423;-90
2021/06/09 06:14:39;;;;;;;35.65;31.77;;;;;;;;;;1482557;40;20410;-89
2021/06/09 06:15:41;;;;;;;39.17;32.88;;;;;;;;;;1477521;40;21408;-89
2021/06/09 06:16:52;;;;;;;37.55;31.58;;;;;;;;;;1476028;40;20471;-89
2021/06/09 06:17:59;;;;;;;38.83;31.85;;;;;;;;;;1484183;40;20438;-90
2021/06/09 06:19:01;;;;;;;36.25;31.38;;;;;;;;;;1480744;40;20400;-90
2021/06/09 06:20:04;;;;;;;37.42;31.35;;;;;;;;;;1479941;40;20411;-89
2021/06/09 06:21:11;;;;;;;37.60;31.90;;;;;;;;;;1476948;40;20412;-91
2021/06/09 06:22:12;;;;;;;35.17;28.73;;;;;;;;;;1479280;40;20457;-89
2021/06/09 06:23:15;;;;;;;36.55;29.70;;;;;;;;;;1481713;40;20425;-90
2021/06/09 06:24:27;;;;;;;35.93;31.60;;;;;;;;;;1482191;40;20469;-90
2021/06/09 06:25:31;;;;;;;39.63;32.60;;;;;;;;;;1481726;40;20413;-89
2021/06/09 06:26:33;;;;;;;37.55;33.42;;;;;;;;;;1479753;40;20446;-90
2021/06/09 06:27:36;;;;;;;38.30;34.10;;;;;;;;;;1475215;40;20399;-88